Time,TemperatureF,DewpointF,PressureIn,WindDirection,WindDirectionDegrees,WindSpeedMPH,WindSpeedGustMPH,Humidity,HourlyPrecipIn,Conditions,Clouds,dailyrainin,SolarRadiationWatts/m^2,SoftwareType,DateUTC
2013-05-21 00:11:00,73.0,46.0,-100.00,ESE,109,11.0,14.0,38,0.00,,,0.00,1.000000,,2013-05-21 07:11:00,
2013-05-21 00:21:00,73.0,46.0,-100.00,ESE,109,11.0,14.0,38,0.00,,,0.00,1.000000,,2013-05-21 07:21:00,
2013-05-21 02:11:00,68.0,43.0,-100.00,ESE,109,2.0,14.0,41,-99.99,,,0.00,1.000000,,2013-05-21 09:11:00,
2013-05-21 02:21:00,68.0,43.0,-100.00,ESE,109,2.0,14.0,41,-99.99,,,0.00,1.000000,,2013-05-21 09:21:00,
2013-05-21 02:32:00,68.0,43.0,-100.00,ESE,109,2.0,14.0,41,-99.99,,,0.00,1.000000,,2013-05-21 09:32:00,
2013-05-21 02:41:00,68.0,43.0,-100.00,ESE,109,2.0,14.0,41,-99.99,,,0.00,1.000000,,2013-05-21 09:41:00,
2013-05-21 03:12:00,67.0,45.0,-100.00,East,100,1.0,3.0,45,0.00,,,0.00,0.000000,,2013-05-21 10:12:00,
2013-05-21 03:22:00,67.0,45.0,-100.00,East,100,1.0,3.0,45,0.00,,,0.00,0.000000,,2013-05-21 10:22:00,
2013-05-21 03:32:00,67.0,45.0,-100.00,East,100,1.0,3.0,45,0.00,,,0.00,0.000000,,2013-05-21 10:32:00,
2013-05-21 04:11:00,64.0,45.0,-100.00,WSW,245,1.0,4.0,50,-99.99,,,0.00,0.000000,,2013-05-21 11:11:00,
2013-05-21 04:21:00,64.0,45.0,-100.00,WSW,245,1.0,4.0,50,-99.99,,,0.00,0.000000,,2013-05-21 11:21:00,
2013-05-21 04:32:00,64.0,45.0,-100.00,WSW,245,1.0,4.0,50,-99.99,,,0.00,0.000000,,2013-05-21 11:32:00,
2013-05-21 04:41:00,64.0,45.0,-100.00,WSW,245,1.0,4.0,50,-99.99,,,0.00,0.000000,,2013-05-21 11:41:00,
2013-05-21 05:11:00,61.0,44.0,-100.00,WSW,253,3.0,5.0,53,0.00,,,0.00,0.000000,,2013-05-21 12:11:00,
2013-05-21 05:21:00,61.0,44.0,-100.00,WSW,253,3.0,5.0,53,0.00,,,0.00,0.000000,,2013-05-21 12:21:00,
2013-05-21 05:31:00,61.0,44.0,-100.00,WSW,253,3.0,5.0,53,0.00,,,0.00,0.000000,,2013-05-21 12:31:00,
2013-05-21 05:41:00,61.0,44.0,-100.00,WSW,253,3.0,5.0,53,0.00,,,0.00,0.000000,,2013-05-21 12:41:00,
2013-05-21 06:11:00,61.0,47.0,-100.00,WSW,246,0.0,6.0,61,0.00,,,0.00,1.000000,,2013-05-21 13:11:00,
2013-05-21 06:22:00,61.0,47.0,-100.00,WSW,246,0.0,6.0,61,0.00,,,0.00,1.000000,,2013-05-21 13:22:00,
2013-05-21 06:31:00,61.0,47.0,-100.00,WSW,246,0.0,6.0,61,0.00,,,0.00,1.000000,,2013-05-21 13:31:00,
2013-05-21 06:41:00,61.0,47.0,-100.00,WSW,246,0.0,6.0,61,0.00,,,0.00,1.000000,,2013-05-21 13:41:00,
2013-05-21 07:11:00,61.0,47.0,-100.00,SW,227,5.0,6.0,60,0.00,,,0.00,42.000000,,2013-05-21 14:11:00,
2013-05-21 07:21:00,61.0,47.0,-100.00,SW,227,5.0,6.0,60,0.00,,,0.00,42.000000,,2013-05-21 14:21:00,
2013-05-21 07:31:00,61.0,47.0,-100.00,SW,227,5.0,6.0,60,0.00,,,0.00,42.000000,,2013-05-21 14:31:00,
2013-05-21 07:41:00,61.0,47.0,-100.00,SW,227,5.0,6.0,60,0.00,,,0.00,42.000000,,2013-05-21 14:41:00,
2013-05-21 08:11:00,61.0,50.0,-100.00,WSW,247,7.0,8.0,67,0.00,,,0.00,237.000000,,2013-05-21 15:11:00,
2013-05-21 08:21:00,61.0,50.0,-100.00,WSW,247,7.0,8.0,67,0.00,,,0.00,237.000000,,2013-05-21 15:21:00,
2013-05-21 08:33:00,61.0,50.0,-100.00,WSW,247,7.0,8.0,67,0.00,,,0.00,237.000000,,2013-05-21 15:33:00,
2013-05-21 08:42:00,61.0,50.0,-100.00,WSW,247,7.0,8.0,67,0.00,,,0.00,237.000000,,2013-05-21 15:42:00,
2013-05-21 09:12:00,60.0,54.0,-100.00,West,260,8.0,11.0,80,0.00,,,0.00,375.000000,,2013-05-21 16:12:00,
2013-05-21 09:23:00,60.0,54.0,-100.00,West,260,8.0,11.0,80,0.00,,,0.00,375.000000,,2013-05-21 16:23:00,
2013-05-21 09:32:00,60.0,54.0,-100.00,West,260,8.0,11.0,80,0.00,,,0.00,375.000000,,2013-05-21 16:32:00,
2013-05-21 09:42:00,60.0,54.0,-100.00,West,260,8.0,11.0,80,0.00,,,0.00,375.000000,,2013-05-21 16:42:00,
2013-05-21 10:12:00,64.0,54.0,-100.00,West,267,10.0,15.0,70,0.00,,,0.00,581.000000,,2013-05-21 17:12:00,
2013-05-21 10:23:00,64.0,54.0,-100.00,West,267,10.0,15.0,70,0.00,,,0.00,581.000000,,2013-05-21 17:23:00,
2013-05-21 10:32:00,64.0,54.0,-100.00,West,267,10.0,15.0,70,0.00,,,0.00,581.000000,,2013-05-21 17:32:00,
2013-05-21 10:43:00,64.0,54.0,-100.00,West,267,10.0,15.0,70,0.00,,,0.00,581.000000,,2013-05-21 17:43:00,
2013-05-21 11:12:00,70.0,55.0,-100.00,West,275,12.0,18.0,59,0.00,,,0.00,745.000000,,2013-05-21 18:12:00,
2013-05-21 11:22:00,70.0,55.0,-100.00,West,275,12.0,18.0,59,0.00,,,0.00,745.000000,,2013-05-21 18:22:00,
2013-05-21 11:32:00,70.0,55.0,-100.00,West,275,12.0,18.0,59,0.00,,,0.00,745.000000,,2013-05-21 18:32:00,
2013-05-21 11:42:00,70.0,55.0,-100.00,West,275,12.0,18.0,59,0.00,,,0.00,745.000000,,2013-05-21 18:42:00,
2013-05-21 12:11:00,74.0,54.0,-100.00,WNW,287,10.0,18.0,49,0.00,,,0.00,869.000000,,2013-05-21 19:11:00,
2013-05-21 12:21:00,74.0,54.0,-100.00,WNW,287,10.0,18.0,49,0.00,,,0.00,869.000000,,2013-05-21 19:21:00,
2013-05-21 12:31:00,74.0,54.0,-100.00,WNW,287,10.0,18.0,49,0.00,,,0.00,869.000000,,2013-05-21 19:31:00,
2013-05-21 12:41:00,74.0,54.0,-100.00,WNW,287,10.0,18.0,49,0.00,,,0.00,869.000000,,2013-05-21 19:41:00,
2013-05-21 13:11:00,77.0,49.0,-100.00,WSW,255,11.0,18.0,37,0.00,,,0.00,920.000000,,2013-05-21 20:11:00,
2013-05-21 13:22:00,77.0,49.0,-100.00,WSW,255,11.0,18.0,37,0.00,,,0.00,920.000000,,2013-05-21 20:22:00,
2013-05-21 13:32:00,77.0,49.0,-100.00,WSW,255,11.0,18.0,37,0.00,,,0.00,920.000000,,2013-05-21 20:32:00,
2013-05-21 13:42:00,77.0,49.0,-100.00,WSW,255,11.0,18.0,37,0.00,,,0.00,920.000000,,2013-05-21 20:42:00,
2013-05-21 14:11:00,77.0,53.0,-100.00,West,259,13.0,21.0,44,0.00,,,0.00,976.000000,,2013-05-21 21:11:00,
2013-05-21 14:21:00,77.0,53.0,-100.00,West,259,13.0,21.0,44,0.00,,,0.00,976.000000,,2013-05-21 21:21:00,
2013-05-21 14:32:00,77.0,53.0,-100.00,West,259,13.0,21.0,44,0.00,,,0.00,976.000000,,2013-05-21 21:32:00,
2013-05-21 14:43:00,77.0,53.0,-100.00,West,259,13.0,21.0,44,0.00,,,0.00,976.000000,,2013-05-21 21:43:00,
2013-05-21 15:12:00,76.0,55.0,-100.00,WNW,287,14.0,21.0,48,0.00,,,0.00,886.000000,,2013-05-21 22:12:00,
2013-05-21 15:22:00,76.0,55.0,-100.00,WNW,287,14.0,21.0,48,0.00,,,0.00,886.000000,,2013-05-21 22:22:00,
2013-05-21 15:33:00,76.0,55.0,-100.00,WNW,287,14.0,21.0,48,0.00,,,0.00,886.000000,,2013-05-21 22:33:00,
2013-05-21 15:41:00,76.0,55.0,-100.00,WNW,287,14.0,21.0,48,0.00,,,0.00,886.000000,,2013-05-21 22:41:00,
2013-05-21 16:12:00,76.0,49.0,-100.00,West,265,12.0,20.0,39,0.00,,,0.00,819.000000,,2013-05-21 23:12:00,
2013-05-21 16:22:00,76.0,49.0,-100.00,West,265,12.0,20.0,39,0.00,,,0.00,819.000000,,2013-05-21 23:22:00,
2013-05-21 16:32:00,76.0,49.0,-100.00,West,265,12.0,20.0,39,0.00,,,0.00,819.000000,,2013-05-21 23:32:00,
2013-05-21 16:42:00,76.0,49.0,-100.00,West,265,12.0,20.0,39,0.00,,,0.00,819.000000,,2013-05-21 23:42:00,
2013-05-21 17:11:00,72.0,51.0,-100.00,WSW,250,11.0,20.0,47,0.00,,,0.00,666.000000,,2013-05-22 00:11:00,
2013-05-21 17:21:00,72.0,51.0,-100.00,WSW,250,11.0,20.0,47,0.00,,,0.00,666.000000,,2013-05-22 00:21:00,
2013-05-21 17:31:00,72.0,51.0,-100.00,WSW,250,11.0,20.0,47,0.00,,,0.00,666.000000,,2013-05-22 00:31:00,
2013-05-21 17:41:00,72.0,51.0,-100.00,WSW,250,11.0,20.0,47,0.00,,,0.00,666.000000,,2013-05-22 00:41:00,
2013-05-21 18:11:00,71.0,51.0,-100.00,WSW,246,8.0,19.0,50,0.00,,,0.00,474.000000,,2013-05-22 01:11:00,
2013-05-21 18:21:00,71.0,51.0,-100.00,WSW,246,8.0,19.0,50,0.00,,,0.00,474.000000,,2013-05-22 01:21:00,
2013-05-21 18:32:00,71.0,51.0,-100.00,WSW,246,8.0,19.0,50,0.00,,,0.00,474.000000,,2013-05-22 01:32:00,
2013-05-21 18:41:00,71.0,51.0,-100.00,WSW,246,8.0,19.0,50,0.00,,,0.00,474.000000,,2013-05-22 01:41:00,
2013-05-21 19:11:00,67.0,51.0,-100.00,SW,235,13.0,19.0,56,0.00,,,0.00,262.000000,,2013-05-22 02:11:00,
2013-05-21 19:21:00,67.0,51.0,-100.00,SW,235,13.0,19.0,56,0.00,,,0.00,262.000000,,2013-05-22 02:21:00,
2013-05-21 19:32:00,67.0,51.0,-100.00,SW,235,13.0,19.0,56,0.00,,,0.00,262.000000,,2013-05-22 02:32:00,
2013-05-21 19:41:00,67.0,51.0,-100.00,SW,235,13.0,19.0,56,0.00,,,0.00,262.000000,,2013-05-22 02:41:00,
2013-05-21 20:11:00,61.0,53.0,-100.00,West,266,7.0,17.0,74,0.00,,,0.00,75.000000,,2013-05-22 03:11:00,
2013-05-21 20:43:00,61.0,53.0,-100.00,West,266,7.0,17.0,74,0.00,,,0.00,75.000000,,2013-05-22 03:43:00,
2013-05-21 21:13:00,61.0,48.0,-100.00,SW,235,3.0,8.0,62,0.00,,,0.00,2.000000,,2013-05-22 04:13:00,
2013-05-21 21:22:00,61.0,48.0,-100.00,SW,235,3.0,8.0,62,0.00,,,0.00,2.000000,,2013-05-22 04:22:00,
2013-05-21 21:33:00,61.0,48.0,-100.00,SW,235,3.0,8.0,62,0.00,,,0.00,2.000000,,2013-05-22 04:33:00,
2013-05-21 21:42:00,61.0,48.0,-100.00,SW,235,3.0,8.0,62,0.00,,,0.00,2.000000,,2013-05-22 04:42:00,
2013-05-21 22:11:00,65.0,47.0,-100.00,SSE,168,3.0,10.0,53,0.00,,,0.00,0.000000,,2013-05-22 05:11:00,
2013-05-21 22:21:00,65.0,47.0,-100.00,SSE,168,3.0,10.0,53,0.00,,,0.00,0.000000,,2013-05-22 05:21:00,
2013-05-21 22:31:00,65.0,47.0,-100.00,SSE,168,3.0,10.0,53,0.00,,,0.00,0.000000,,2013-05-22 05:31:00,
2013-05-21 22:42:00,65.0,47.0,-100.00,SSE,168,3.0,10.0,53,0.00,,,0.00,0.000000,,2013-05-22 05:42:00,
2013-05-21 23:11:00,60.0,50.0,-100.00,ESE,109,4.0,8.0,69,0.00,,,0.00,0.000000,,2013-05-22 06:11:00,
2013-05-21 23:21:00,60.0,50.0,-100.00,ESE,109,4.0,8.0,69,0.00,,,0.00,0.000000,,2013-05-22 06:21:00,
2013-05-21 23:31:00,60.0,50.0,-100.00,ESE,109,4.0,8.0,69,0.00,,,0.00,0.000000,,2013-05-22 06:31:00,
2013-05-21 23:41:00,60.0,50.0,-100.00,ESE,109,4.0,8.0,69,0.00,,,0.00,0.000000,,2013-05-22 06:41:00,